Terminal Aerodrome Forecast
Issued by NWS

Home | Current Version | Previous Version | Text Only | Print | Product List | Glossary On
Versions: 1 2 3 4 5 6 7 8 9 10 11 12 13 14 15 16 17 18 19 20 21 22 23
000
FTUS44 KLIX 291100
TAFHUM
TAF
KHUM 291138Z 2912/3012 06005KT P6SM SCT025 BKN100 BKN250
     FM291400 10006KT P6SM VCSH SCT030 BKN100 BKN250
      TEMPO 2917/2921 VRB10G20KT 3SM TSRA BKN030CB
     FM300000 14006KT P6SM VCTS SCT030CB BKN050
     FM300600 15006KT P6SM BKN025=

USA.gov is the U.S. government's official web portal to all federal, state and local government web resources and services.